Date,TemperatureHighF,TemperatureAvgF,TemperatureLowF,DewpointHighF,DewpointAvgF,DewpointLowF,HumidityHigh,HumidityAvg,HumidityLow,PressureMaxIn,PressureMinIn,WindSpeedMaxMPH,WindSpeedAvgMPH,GustSpeedMaxMPH,PrecipitationSumIn
2013-1-1,25.2,13.9,1.6,10.7,5.6,-2.6,84,70,46,30.37,30.17,8,2,8,0.00
2013-1-2,35.1,18.4,12.9,25.9,12.7,7.9,83,78,68,30.17,30.10,9,3,10,0.00
2013-4-2,59.0,40.5,21.4,27.6,19.6,14.4,78,47,24,30.39,30.30,11,2,11,0.00
2013-4-3,61.2,44.0,30.6,25.4,22.6,20.0,67,45,23,30.41,30.27,15,4,15,0.00
2013-4-4,66.4,49.8,31.1,36.2,29.8,22.7,77,48,31,30.29,30.12,14,4,14,0.00
2013-4-5,70.9,54.4,34.5,37.9,32.0,27.3,76,46,22,30.24,29.80,19,6,19,0.00
2013-4-6,72.0,59.6,51.3,45.5,38.9,34.6,67,48,27,29.87,29.68,20,6,20,0.00
2013-4-7,78.4,57.1,42.3,48.9,41.5,36.2,87,59,24,29.93,29.72,12,4,17,0.22
2013-4-8,61.7,59.4,51.6,56.5,54.5,49.1,95,84,80,29.81,29.68,11,3,11,0.09
2013-4-9,61.7,55.6,39.9,55.8,50.8,38.1,93,84,81,29.93,29.80,21,4,21,0.41
2013-4-10,36.5,34.9,31.8,35.2,33.5,31.1,97,95,89,30.06,29.88,14,2,14,0.27
2013-4-11,35.8,32.2,29.3,32.3,29.3,26.9,98,89,80,29.88,29.73,14,2,14,0.09
2013-4-12,41.2,35.2,28.6,29.2,27.8,24.1,87,75,59,30.09,29.81,14,4,14,0.01
2013-4-13,56.3,42.5,25.3,37.4,30.9,22.3,90,66,45,30.11,29.74,14,4,18,0.00
2013-4-14,69.6,53.4,42.8,51.0,41.7,32.0,84,66,44,29.77,29.42,22,6,27,0.17
2013-4-15,46.9,40.5,32.5,32.2,27.5,21.8,81,60,47,30.17,29.76,11,2,14,0.00
2013-4-16,53.4,43.5,35.1,32.9,28.3,24.6,74,56,35,30.32,30.15,12,4,15,0.00
2013-4-17,46.8,41.4,36.0,41.3,36.7,31.8,96,84,57,30.24,29.79,17,5,21,0.79
2013-4-18,36.0,33.2,30.7,34.1,30.4,26.6,98,89,76,29.99,29.78,20,8,21,0.34
2013-4-19,47.5,37.0,28.0,26.9,21.5,18.7,80,55,33,30.18,29.94,16,7,21,0.00
2013-4-20,48.7,37.0,22.3,27.8,20.2,15.0,85,54,30,30.33,30.18,12,4,17,0.00
2013-4-21,71.6,55.2,44.1,49.4,37.2,26.5,92,54,27,30.22,30.07,14,5,19,0.46
2013-4-22,53.4,43.2,32.4,50.9,41.1,28.0,98,92,83,30.29,30.03,14,3,21,0.71
2013-4-23,40.3,33.1,27.5,28.1,23.1,19.9,84,67,51,30.34,30.22,14,3,16,0.00
2013-4-24,62.2,41.7,22.8,38.2,25.2,16.8,85,57,19,30.28,30.11,20,4,23,0.01
2013-4-25,74.3,53.4,30.6,36.2,30.2,26.0,85,48,17,30.33,30.09,13,3,19,0.00
2013-4-26,77.2,64.3,51.1,46.4,41.6,35.2,56,44,29,30.18,30.10,12,4,14,0.00
2013-4-27,72.5,72.5,72.5,46.2,46.2,46.2,39,39,39,30.16,30.16,4,4,8,0.00
2013-4-28,72.5,72.5,72.5,46.2,46.2,46.2,39,39,39,30.16,30.16,4,4,8,0.00
2013-4-29,72.5,72.5,72.5,46.2,46.2,46.2,39,39,39,30.16,30.16,4,4,8,0.00
2013-4-30,73.4,70.9,61.5,47.8,45.2,37.6,50,40,37,30.16,29.81,11,3,14,0.00
2013-5-1,61.5,42.0,34.7,41.7,36.1,32.6,92,81,41,30.38,29.98,22,7,22,0.07
2013-5-2,34.7,34.7,34.7,32.6,32.6,32.6,92,92,92,30.38,30.38,8,8,11,0.00
2013-5-3,34.7,34.7,34.7,32.6,32.6,32.6,92,92,92,30.38,30.38,8,8,11,0.00
2013-5-4,34.7,34.7,34.7,32.6,32.6,32.6,92,92,92,30.38,30.38,8,8,11,0.00
2013-5-5,34.7,34.7,34.7,32.6,32.6,32.6,92,92,92,30.38,30.38,8,8,11,0.00
2013-5-6,48.6,44.1,34.7,45.3,41.1,32.6,92,89,88,30.38,30.22,8,2,11,0.70
2013-5-7,48.6,48.6,48.6,45.2,45.2,45.2,88,88,88,30.23,30.23,0,0,4,0.00
2013-5-8,48.6,48.6,48.6,45.2,45.2,45.2,88,88,88,30.23,30.23,0,0,4,0.00
2013-5-9,48.6,48.6,48.6,45.2,45.2,45.2,88,88,88,30.23,30.23,0,0,4,0.00
2013-5-10,73.2,57.2,48.6,52.2,45.7,42.7,88,69,35,30.23,30.08,17,1,17,0.91
2013-5-11,61.5,55.0,40.5,45.8,27.8,12.5,80,39,15,30.34,30.11,17,4,24,0.00
2013-5-12,72.7,54.4,32.0,33.8,22.5,12.5,76,36,10,30.36,30.18,6,0,8,0.00
2013-5-13,88.9,69.2,47.5,51.6,39.7,26.8,65,37,14,30.19,29.92,13,2,15,0.00
2013-5-14,105.1,83.6,60.1,60.8,48.4,34.1,80,38,10,29.93,29.73,17,3,19,0.00
2013-5-15,81.3,73.9,68.7,42.5,39.8,38.1,34,29,24,29.90,29.86,1,0,2,0.00
2013-5-17,92.7,84.8,72.0,59.1,57.3,55.1,63,41,29,29.98,29.90,11,3,11,0.00
2013-5-18,90.1,77.0,63.5,66.2,61.7,57.9,83,61,39,29.98,29.78,22,4,22,0.04
2013-5-19,82.8,66.9,59.5,67.8,61.3,53.6,97,83,54,29.88,29.60,11,2,13,0.53
2013-5-20,81.5,67.6,55.9,57.6,54.3,49.7,94,66,37,29.75,29.60,14,4,17,0.01
2013-5-21,62.4,60.5,58.1,55.7,54.0,52.0,82,79,74,29.73,29.69,11,3,13,0.00
2013-5-22,62.2,55.4,51.4,53.1,48.8,47.2,90,79,64,30.07,29.82,12,2,12,0.01
2013-5-23,78.1,61.8,51.4,51.6,45.8,36.4,88,61,26,30.32,30.07,17,2,17,0.00
2013-5-24,78.6,65.4,50.5,50.5,45.8,41.3,73,51,32,30.37,30.11,17,5,19,0.00
2013-5-25,81.1,68.4,57.7,68.2,58.7,45.4,96,73,49,30.20,30.03,13,5,14,0.25
2013-5-26,82.0,70.5,63.7,69.4,64.3,59.5,92,81,64,30.08,29.92,12,5,14,0.00
2013-5-27,82.9,69.1,59.7,65.5,62.0,58.8,99,80,53,30.00,29.69,14,4,21,0.96
2013-5-28,86.0,73.6,61.2,66.5,62.8,57.4,99,72,41,29.83,29.73,11,1,11,0.01
2013-5-29,76.5,69.4,62.6,70.1,64.2,59.9,97,84,71,29.82,29.62,20,4,20,0.72
2013-5-30,80.6,67.1,60.1,64.4,60.4,53.6,99,81,55,29.73,29.59,13,3,13,0.13
2013-5-31,84.4,70.8,56.1,55.0,50.5,43.9,87,53,26,29.81,29.70,18,3,18,0.00
2013-6-1,63.0,58.5,53.6,54.2,49.9,45.9,89,73,54,30.11,29.76,21,4,21,0.05
2013-6-2,76.8,60.4,50.4,48.5,45.0,40.3,87,60,30,30.21,30.09,12,1,12,0.00
2013-6-3,79.2,65.1,48.6,53.6,48.0,44.1,87,57,29,30.13,29.91,17,5,20,0.00
2013-6-4,78.8,67.0,58.3,63.5,59.0,53.4,93,76,58,30.08,29.96,12,3,14,0.17
2013-6-5,79.9,66.2,55.2,62.1,52.2,46.2,96,64,32,30.15,30.05,10,1,10,0.00
2013-6-6,75.9,64.3,52.7,58.0,50.5,45.5,87,63,38,30.10,30.04,5,0,5,0.00
2013-6-7,81.1,64.3,49.6,57.4,50.0,47.4,93,63,32,30.14,29.98,7,1,10,0.00
2013-6-8,68.9,62.4,58.3,63.3,56.5,49.6,99,82,63,29.99,29.75,21,4,21,0.76
2013-6-9,70.9,63.5,59.9,62.2,58.9,56.8,99,86,67,29.93,29.80,11,2,13,0.15
2013-6-10,84.0,69.5,54.9,64.7,60.1,53.7,98,75,47,29.99,29.87,10,2,11,0.00
2013-6-11,93.4,79.4,68.9,71.9,65.6,60.9,83,65,38,29.93,29.80,10,3,11,0.00
2013-6-12,92.3,79.9,62.6,71.2,63.6,52.6,77,59,42,30.11,29.76,17,3,19,0.00
2013-6-13,75.2,62.3,59.2,62.2,55.1,52.4,86,78,60,30.15,30.05,8,0,8,0.01
2013-6-14,95.0,74.5,61.0,72.0,64.2,57.3,97,72,46,30.12,29.85,14,5,18,0.89
2013-6-15,89.1,75.9,65.7,70.4,65.8,62.3,95,73,44,30.05,29.90,21,2,21,0.00
2013-6-16,92.5,78.4,67.3,70.9,63.0,54.1,97,64,30,30.08,30.03,5,0,7,0.00
2013-6-17,96.3,79.6,62.8,64.1,57.1,51.9,85,51,24,30.12,30.03,3,0,8,0.00
2013-6-18,70.5,66.7,63.0,64.6,57.2,54.0,90,72,57,30.17,30.08,4,0,8,0.06
2013-6-19,92.7,77.7,62.8,66.6,61.6,55.7,86,60,35,30.10,29.99,13,3,13,0.00
2013-6-20,95.2,82.6,70.2,72.2,68.5,64.0,83,64,43,30.05,29.90,12,5,17,0.00
2013-6-21,99.1,87.2,78.3,72.2,70.6,67.7,77,59,37,29.97,29.86,12,4,12,0.00
2013-6-22,95.7,82.6,70.5,71.0,66.1,59.1,79,59,40,30.10,29.87,19,5,19,0.02
2013-6-23,87.8,75.7,64.4,71.0,67.0,62.8,99,76,55,30.05,29.83,13,2,13,0.81
2013-6-24,87.3,77.8,64.4,73.0,70.1,62.6,97,78,58,29.99,29.81,13,4,17,0.59
2013-6-25,91.4,81.2,69.6,75.5,70.0,65.1,92,70,48,29.91,29.75,14,3,14,0.00
2013-6-26,98.4,83.7,70.9,73.6,67.0,58.9,98,62,29,29.99,29.75,6,1,10,0.01
2013-6-27,91.9,74.2,66.7,73.3,67.2,62.7,96,80,48,30.09,29.98,7,0,10,0.31
2013-6-28,88.9,78.0,66.4,66.5,59.9,49.9,94,58,28,30.08,29.99,13,2,17,0.00
2013-6-29,84.0,73.1,62.4,61.3,56.5,53.9,79,58,39,30.05,29.99,13,2,14,0.00
2013-6-30,82.8,69.6,56.3,60.6,54.1,48.9,94,62,33,30.20,30.05,8,0,11,0.00
2013-7-1,89.8,72.6,52.9,59.3,52.5,45.0,93,55,23,30.28,30.19,6,0,8,0.00
2013-7-2,92.7,70.4,57.9,63.1,56.9,51.6,91,67,28,30.26,30.15,10,0,11,0.04
2013-7-3,90.5,73.7,56.8,68.3,57.1,49.3,98,62,28,30.16,30.04,8,1,8,0.00
2013-7-4,91.8,77.7,61.7,60.6,56.3,51.1,78,51,26,30.08,29.98,11,3,12,0.00
2013-7-5,91.8,79.4,67.6,65.5,61.5,25.4,72,56,10,30.02,29.92,17,4,17,0.00
2013-7-6,94.1,79.7,70.9,67.5,64.3,61.0,73,61,41,29.98,29.90,11,4,14,0.00
2013-7-7,99.3,85.2,73.9,70.7,66.4,61.5,71,55,34,30.00,29.91,11,2,11,0.00
2013-7-8,96.3,83.9,76.5,73.8,71.0,67.4,82,66,43,30.06,29.99,7,1,8,0.00
2013-7-9,103.1,88.9,75.0,75.6,72.2,69.5,89,61,37,30.06,29.95,9,1,11,0.01
2013-7-10,89.1,83.0,79.0,71.4,66.7,61.7,77,60,42,30.19,30.06,6,0,7,0.00
2013-7-11,86.4,86.4,86.4,63.2,63.2,63.2,46,46,46,30.14,30.14,0,0,1,0.00
2013-7-12,86.4,86.4,86.4,63.2,63.2,63.2,46,46,46,30.14,30.14,0,0,1,0.00
2013-7-13,86.4,86.4,86.4,63.2,63.2,63.2,46,46,46,30.14,30.14,0,0,1,0.00
2013-7-14,86.4,86.4,86.4,63.2,63.2,63.2,46,46,46,30.14,30.14,0,0,1,0.00
2013-7-15,86.4,86.4,86.4,63.2,63.2,63.2,46,46,46,30.14,30.14,0,0,1,0.00
2013-7-16,86.4,86.4,86.4,63.2,63.2,63.2,46,46,46,30.14,30.14,0,0,1,0.00
2013-7-17,86.4,86.4,86.4,63.2,63.2,63.2,46,46,46,30.14,30.14,0,0,1,0.00
2013-7-18,86.4,86.4,86.4,63.2,63.2,63.2,46,46,46,30.14,30.14,0,0,1,0.00
2013-7-19,86.4,86.4,86.4,63.2,63.2,63.2,46,46,46,30.14,30.14,0,0,1,0.00
2013-7-20,86.4,86.4,86.4,63.2,63.2,63.2,46,46,46,30.14,30.14,0,0,1,0.00
2013-7-21,86.4,86.4,86.4,63.2,63.2,63.2,46,46,46,30.14,30.14,0,0,1,0.00
2013-7-22,86.4,86.4,86.4,63.2,63.2,63.2,46,46,46,30.14,30.14,0,0,1,0.00
2013-7-23,86.4,86.4,86.4,63.2,63.2,63.2,46,46,46,30.14,30.14,0,0,1,0.00
2013-7-24,86.4,86.4,86.4,63.2,63.2,63.2,46,46,46,30.14,30.14,0,0,1,0.00
2013-7-25,86.4,81.7,69.8,68.5,64.6,61.7,95,58,46,30.14,29.78,8,1,13,0.71
2013-7-26,80.6,71.3,57.9,68.3,59.5,52.2,99,70,40,30.01,29.88,7,1,9,0.01
2013-7-27,79.2,62.5,53.2,55.8,49.9,46.1,95,67,33,30.04,29.91,2,0,4,0.00
2013-7-28,86.4,67.4,48.0,57.1,48.6,45.2,95,57,26,29.98,29.91,6,0,9,0.00
2013-7-29,67.3,63.4,58.6,64.9,57.4,49.1,99,82,60,29.96,29.91,11,3,13,0.14
2013-7-30,77.9,70.2,64.8,69.1,65.9,64.3,99,87,71,30.02,29.92,5,0,5,0.00
2013-7-31,91.9,76.1,62.2,72.2,65.1,62.0,99,73,42,30.05,29.95,5,0,5,0.00
2013-8-1,89.6,74.4,61.7,71.2,65.4,61.4,99,76,45,30.00,29.77,12,2,14,0.26
2013-8-2,88.7,77.3,66.6,72.1,67.1,63.7,97,72,51,29.88,29.75,7,1,11,0.00
2013-8-3,81.3,70.7,62.6,61.9,58.6,55.9,86,67,44,30.08,29.93,9,1,9,0.00
2013-8-4,82.6,71.3,60.3,66.7,60.4,55.4,86,70,51,30.08,29.92,13,2,14,0.00
2013-8-5,91.2,76.7,69.4,75.9,71.4,66.0,97,84,58,29.93,29.75,6,1,9,0.13
2013-8-6,86.5,72.4,65.5,73.2,70.4,65.2,99,94,61,29.88,29.71,8,1,8,0.27
2013-8-7,89.6,78.0,66.4,73.5,65.8,57.7,98,69,40,29.91,29.74,4,0,4,0.00
2013-8-8,83.1,72.7,66.0,68.5,63.7,60.7,85,74,57,29.93,29.85,6,0,6,0.00
2013-8-9,85.3,73.2,61.3,71.1,63.8,58.6,99,75,46,30.05,29.92,5,0,7,0.00
2013-8-10,88.9,73.3,58.1,68.0,61.1,57.8,99,69,38,30.11,29.97,9,1,11,0.00
2013-8-11,91.0,77.7,65.5,70.7,65.7,60.1,89,68,46,30.02,29.89,11,2,12,0.00
2013-8-12,88.5,75.5,68.0,70.6,66.6,59.9,94,75,41,29.98,29.90,4,0,5,0.00
2013-8-13,82.0,73.9,61.0,63.6,59.0,55.1,91,62,42,30.07,29.98,4,0,6,0.00
2013-8-14,80.4,75.3,63.0,61.4,58.5,56.3,85,57,47,30.09,29.97,8,2,11,0.05
2013-8-15,68.0,63.0,60.3,61.8,60.0,58.5,99,90,79,30.01,29.93,14,4,17,0.54
2013-8-16,79.0,68.0,61.7,60.6,58.3,56.6,89,72,48,30.07,30.00,11,3,13,0.00
2013-8-17,85.5,70.6,57.2,62.3,57.6,54.9,97,67,38,30.09,30.01,8,1,12,0.00
2013-8-18,86.7,71.9,55.2,62.5,58.6,54.3,98,67,40,30.06,29.95,9,2,11,0.00
2013-8-19,90.7,78.0,65.5,69.6,65.9,61.7,88,68,48,29.98,29.83,10,2,13,0.00
2013-8-20,94.5,81.6,70.5,72.4,69.0,66.7,88,67,47,29.87,29.81,11,3,14,0.00
2013-8-21,97.9,83.7,72.7,72.5,69.5,66.7,83,64,43,29.90,29.84,12,2,14,0.00
2013-8-22,104.4,78.3,70.3,89.4,68.0,65.4,89,72,50,30.00,29.86,49,2,49,0.01
2013-8-23,93.2,79.4,70.5,73.2,69.5,66.3,92,74,42,29.99,29.91,11,2,12,0.00